Time;durP1;ratioP1;P1;durP2;ratioP2;P2;SDS_P1;SDS_P2;PMS_P1;PMS_P2;Temp;Humidity;BMP_temperature;BMP_pressure;BME280_temperature;BME280_humidity;BME280_pressure;Samples;Min_cycle;Max_cycle;Signal;HPM_P1;HPM_P2
2022/12/09 00:02:03;;;;;;;23.20;18.60;;;;;;;0.85;79.09;99701.42;103774;1303;22474;-77
2022/12/09 00:04:29;;;;;;;24.50;17.10;;;;;;;0.87;79.06;99699.89;103878;1303;22539;-77
2022/12/09 00:06:56;;;;;;;26.00;18.90;;;;;;;0.81;78.97;99699.95;104012;1303;22466;-78
2022/12/09 00:09:22;;;;;;;23.10;17.60;;;;;;;0.82;79.39;99700.50;103870;1303;22428;-78
2022/12/09 00:11:49;;;;;;;23.20;17.90;;;;;;;0.84;79.25;99697.07;103943;1302;22663;-79
2022/12/09 00:14:15;;;;;;;27.80;20.30;;;;;;;0.85;79.40;99700.05;103768;1303;22467;-77
2022/12/09 00:16:41;;;;;;;22.40;17.60;;;;;;;0.89;79.28;99696.82;103997;1303;24735;-75
2022/12/09 00:19:07;;;;;;;26.60;18.00;;;;;;;0.88;79.07;99700.26;104152;1303;23893;-76
2022/12/09 00:21:35;;;;;;;25.20;18.70;;;;;;;0.87;79.13;99697.83;104305;1300;22503;-78
2022/12/09 00:24:07;;;;;;;25.30;19.00;;;;;;;0.94;79.55;99698.13;104362;1304;25400;-77
2022/12/09 00:26:34;;;;;;;25.30;19.40;;;;;;;1.04;79.49;99696.91;104682;1303;22475;-81
2022/12/09 00:29:02;;;;;;;24.30;18.60;;;;;;;1.06;78.99;99697.48;104856;1303;22524;-83
2022/12/09 00:31:34;;;;;;;24.60;18.70;;;;;;;1.05;79.07;99697.96;104292;1303;25405;-81
2022/12/09 00:34:04;;;;;;;28.60;19.10;;;;;;;1.08;79.00;99700.11;104057;1303;24248;-80
2022/12/09 00:36:32;;;;;;;26.50;20.60;;;;;;;1.04;78.68;99702.80;104362;1303;22494;-81
2022/12/09 00:38:59;;;;;;;25.10;17.70;;;;;;;1.02;78.72;99703.62;104372;1310;24517;-78
2022/12/09 00:41:27;;;;;;;27.90;19.30;;;;;;;1.01;78.76;99702.05;103990;1309;22596;-79
2022/12/09 00:43:55;;;;;;;23.90;18.90;;;;;;;1.02;78.86;99701.73;104070;1309;23480;-78
2022/12/09 00:46:21;;;;;;;24.60;19.10;;;;;;;1.01;78.64;99701.54;103527;1310;22481;-78
2022/12/09 00:48:48;;;;;;;27.90;18.80;;;;;;;0.96;78.81;99702.50;103471;1309;22586;-78
2022/12/09 00:51:19;;;;;;;23.60;18.30;;;;;;;0.97;78.83;99703.04;103774;1314;22435;-78
2022/12/09 00:53:46;;;;;;;24.30;17.90;;;;;;;0.92;78.66;99696.36;104846;1313;22510;-80
2022/12/09 00:56:14;;;;;;;23.70;18.00;;;;;;;0.94;78.86;99697.59;104800;1314;22423;-83
2022/12/09 00:58:42;;;;;;;25.30;18.70;;;;;;;0.93;78.62;99699.84;105141;1307;22508;-81
2022/12/09 01:01:08;;;;;;;24.20;19.00;;;;;;;0.93;78.67;99700.19;106188;1308;25241;-80
2022/12/09 01:03:35;;;;;;;26.00;19.40;;;;;;;0.94;78.82;99693.95;105940;1310;22562;-81
2022/12/09 01:06:07;;;;;;;25.10;18.50;;;;;;;0.98;78.77;99699.06;104781;1310;25276;-82
2022/12/09 01:08:34;;;;;;;26.60;19.60;;;;;;;1.01;78.67;99697.20;103983;1301;22578;-79
2022/12/09 01:11:35;;;;;;;26.60;19.80;;;;;;;0.99;78.57;99695.44;103864;1301;22531;-76
2022/12/09 01:14:02;;;;;;;;;;;;;;;0.98;78.65;99695.60;103852;1301;25295;-77
2022/12/09 01:16:31;;;;;;;28.20;19.20;;;;;;;0.97;78.66;99695.42;103758;1301;22459;-76
2022/12/09 01:19:00;;;;;;;26.40;18.50;;;;;;;1.00;78.71;99695.97;103798;1301;22468;-75
2022/12/09 01:21:29;;;;;;;26.00;19.20;;;;;;;0.98;78.62;99697.15;103576;1301;22468;-74
2022/12/09 01:23:56;;;;;;;24.70;18.40;;;;;;;1.01;78.82;99696.35;103567;1301;25207;-75
2022/12/09 01:26:23;;;;;;;25.20;18.90;;;;;;;0.97;78.19;99691.59;103736;1301;22423;-76
2022/12/09 01:28:51;;;;;;;26.10;19.30;;;;;;;0.85;78.30;99683.73;104489;1301;22477;-74
2022/12/09 01:31:22;;;;;;;29.10;18.60;;;;;;;0.79;78.58;99686.23;103265;1307;25327;-75
2022/12/09 01:33:50;;;;;;;26.30;20.40;;;;;;;0.79;78.71;99683.61;103085;1307;25321;-74
2022/12/09 01:36:19;;;;;;;28.10;18.80;;;;;;;0.83;78.96;99689.77;103334;1307;22471;-78
2022/12/09 01:38:47;;;;;;;26.70;19.60;;;;;;;0.80;78.53;99687.09;103253;1307;22570;-80
2022/12/09 01:41:15;;;;;;;25.90;19.90;;;;;;;0.72;78.37;99685.05;103286;1307;22905;-78
2022/12/09 01:43:43;;;;;;;26.80;21.60;;;;;;;0.68;78.65;99684.12;103243;1294;22865;-77
2022/12/09 01:46:09;;;;;;;29.60;20.70;;;;;;;0.64;78.80;99681.11;103157;1307;24499;-79
2022/12/09 01:48:43;;;;;;;24.40;19.00;;;;;;;0.62;78.85;99681.73;103078;1302;22467;-78
2022/12/09 01:51:16;;;;;;;27.00;19.30;;;;;;;0.60;78.78;99682.20;103632;1301;25321;-78
2022/12/09 01:53:46;;;;;;;24.40;18.30;;;;;;;0.54;78.92;99681.39;103725;1301;22474;-78
2022/12/09 01:56:19;;;;;;;24.80;18.30;;;;;;;0.57;79.18;99684.23;103480;1303;22454;-76
2022/12/09 01:58:47;;;;;;;21.80;16.10;;;;;;;0.56;79.04;99684.38;103621;1303;24025;-80
2022/12/09 02:01:17;;;;;;;27.50;21.00;;;;;;;0.57;79.05;99688.21;103606;1303;22585;-78
2022/12/09 02:03:44;;;;;;;28.60;19.90;;;;;;;0.55;79.12;99679.85;103595;1303;22735;-75
2022/12/09 02:06:12;;;;;;;29.10;21.00;;;;;;;0.55;79.07;99678.31;103542;1303;24698;-79
2022/12/09 02:08:39;;;;;;;25.50;19.00;;;;;;;0.53;79.07;99678.09;103363;1306;22618;-76
2022/12/09 02:11:44;;;;;;;28.10;20.40;;;;;;;0.53;79.04;99674.63;103220;1306;22462;-75
2022/12/09 02:14:20;;;;;;;31.70;19.90;;;;;;;0.52;79.08;99675.29;103318;1307;22677;-75
2022/12/09 02:17:13;;;;;;;26.40;19.30;;;;;;;0.54;79.24;99671.52;102787;1314;22512;-76
2022/12/09 02:20:02;;;;;;;28.90;20.20;;;;;;;0.53;79.27;99671.31;102694;1313;22485;-76
2022/12/09 02:22:45;;;;;;;32.20;20.80;;;;;;;0.57;79.26;99670.72;102778;1314;23194;-76
2022/12/09 02:25:25;;;;;;;25.50;20.10;;;;;;;0.56;79.07;99666.72;102782;1313;25269;-78
2022/12/09 02:28:31;;;;;;;25.60;18.90;;;;;;;0.51;78.75;99668.35;103031;1310;23091;-81
2022/12/09 02:31:07;;;;;;;28.40;18.90;;;;;;;0.47;78.88;99662.55;103179;1303;22608;-79
2022/12/09 02:34:06;;;;;;;28.60;19.80;;;;;;;0.46;78.89;99661.66;102959;1310;22543;-81
2022/12/09 02:36:43;;;;;;;27.30;19.60;;;;;;;0.43;79.07;99667.50;103410;1303;24296;-78
2022/12/09 02:39:10;;;;;;;28.20;21.00;;;;;;;0.41;78.96;99667.98;103689;1303;22470;-77
2022/12/09 02:41:41;;;;;;;26.50;20.70;;;;;;;0.39;79.11;99666.89;103523;1300;22443;-78
2022/12/09 02:44:16;;;;;;;27.90;19.60;;;;;;;0.41;79.21;99669.20;103601;1303;24266;-78
2022/12/09 02:46:45;;;;;;;27.70;20.40;;;;;;;0.38;78.94;99663.23;103561;1303;24311;-79
2022/12/09 02:49:13;;;;;;;28.00;19.00;;;;;;;0.36;79.17;99669.77;103515;1303;182816;-78
2022/12/09 02:51:41;;;;;;;26.20;19.10;;;;;;;0.39;79.17;99674.15;103579;1303;25240;-76
2022/12/09 02:54:16;;;;;;;26.20;20.20;;;;;;;0.39;79.25;99672.45;103536;1303;22564;-78
2022/12/09 02:57:00;;;;;;;26.90;19.30;;;;;;;0.38;79.05;99673.64;103479;1303;25310;-77
2022/12/09 02:59:27;;;;;;;25.10;18.70;;;;;;;0.33;79.16;99675.61;103667;1296;22475;-77
2022/12/09 03:02:17;;;;;;;25.80;19.80;;;;;;;0.34;79.35;99677.71;103409;1303;25283;-77
2022/12/09 03:04:48;;;;;;;26.50;19.80;;;;;;;0.34;79.34;99673.21;103553;1303;22499;-79
2022/12/09 03:07:36;;;;;;;26.00;19.30;;;;;;;0.39;79.43;99669.83;103698;1303;22483;-77
2022/12/09 03:10:13;;;;;;;28.20;19.40;;;;;;;0.42;79.25;99667.81;103656;1303;25631;-79
2022/12/09 03:12:42;;;;;;;27.50;20.10;;;;;;;0.49;79.57;99667.45;103589;1296;22464;-77
2022/12/09 03:15:13;;;;;;;27.10;19.00;;;;;;;0.50;79.06;99674.56;103296;1308;22475;-76
2022/12/09 03:17:42;;;;;;;24.40;19.10;;;;;;;0.51;79.14;99677.00;103264;1294;22591;-78
2022/12/09 03:20:14;;;;;;;25.10;17.60;;;;;;;0.51;79.07;99671.11;103296;1307;22445;-77
2022/12/09 03:22:44;;;;;;;28.50;19.30;;;;;;;0.46;78.80;99664.10;102899;1313;22991;-77
2022/12/09 03:25:38;;;;;;;29.50;21.10;;;;;;;0.44;78.88;99666.65;102862;1313;25457;-78
2022/12/09 03:28:09;;;;;;;25.20;18.60;;;;;;;0.48;79.28;99661.02;103004;1312;22476;-76
2022/12/09 03:30:40;;;;;;;24.10;17.10;;;;;;;0.48;79.01;99664.31;102874;1312;25291;-75
2022/12/09 03:33:09;;;;;;;29.00;20.90;;;;;;;0.49;79.18;99658.79;102939;1307;22522;-76
2022/12/09 03:35:41;;;;;;;28.20;20.90;;;;;;;0.50;79.09;99658.80;103029;1309;22480;-76
2022/12/09 03:38:12;;;;;;;30.10;21.90;;;;;;;0.46;79.14;99658.21;103065;1309;24364;-82
2022/12/09 03:40:41;;;;;;;27.90;20.40;;;;;;;0.50;79.21;99659.33;103217;1303;22604;-79
2022/12/09 03:43:13;;;;;;;27.80;19.20;;;;;;;0.47;79.07;99657.54;103723;1303;22502;-81
2022/12/09 03:45:41;;;;;;;31.90;21.80;;;;;;;0.51;79.30;99658.30;103607;1303;26477;-79
2022/12/09 03:48:09;;;;;;;25.70;17.80;;;;;;;0.56;79.32;99658.23;103488;1303;24855;-79
2022/12/09 03:50:50;;;;;;;29.60;20.10;;;;;;;0.55;78.93;99659.59;103687;1303;22481;-80
2022/12/09 03:53:23;;;;;;;28.10;20.20;;;;;;;0.53;79.16;99664.07;103959;1302;22476;-78
2022/12/09 03:56:10;;;;;;;30.70;21.10;;;;;;;0.60;79.36;99662.29;103430;1309;22466;-76
2022/12/09 03:58:40;;;;;;;27.50;20.10;;;;;;;0.65;79.14;99663.08;103003;1309;25569;-75
2022/12/09 04:01:08;;;;;;;28.60;20.70;;;;;;;0.69;79.01;99661.77;103385;1307;22499;-76
2022/12/09 04:03:36;;;;;;;28.30;21.10;;;;;;;0.71;78.92;99663.36;103620;1301;22489;-76
2022/12/09 04:06:03;;;;;;;27.40;19.30;;;;;;;0.68;78.88;99661.92;106161;1307;24240;-75
2022/12/09 04:08:29;;;;;;;26.60;19.80;;;;;;;0.74;79.11;99662.90;103803;1307;23844;-77
2022/12/09 04:10:56;;;;;;;28.30;21.20;;;;;;;0.80;79.00;99666.82;105104;1309;25209;-77
2022/12/09 04:13:22;;;;;;;30.00;21.00;;;;;;;0.83;78.80;99664.45;104809;1306;22940;-75
2022/12/09 04:15:49;;;;;;;28.80;19.90;;;;;;;0.84;78.74;99662.56;106590;1286;22468;-75
2022/12/09 04:18:16;;;;;;;27.50;18.70;;;;;;;0.92;78.86;99658.39;103865;1303;25269;-77
2022/12/09 04:20:42;;;;;;;26.90;19.20;;;;;;;0.97;78.41;99655.70;103754;1303;22462;-81
2022/12/09 04:23:09;;;;;;;25.20;18.60;;;;;;;0.95;78.19;99654.96;103405;1301;22475;-80
2022/12/09 04:25:36;;;;;;;30.00;21.70;;;;;;;0.92;78.18;99661.16;103409;1307;25221;-76
2022/12/09 04:28:04;;;;;;;24.30;17.80;;;;;;;0.90;78.24;99663.02;103437;1285;24525;-75
2022/12/09 04:30:30;;;;;;;28.70;20.50;;;;;;;0.83;78.07;99663.23;103338;1307;25219;-75
2022/12/09 04:32:59;;;;;;;26.20;19.90;;;;;;;0.81;78.35;99660.95;103381;1307;22555;-74
2022/12/09 04:35:27;;;;;;;28.60;20.70;;;;;;;0.79;78.27;99664.21;103420;1307;25563;-73
2022/12/09 04:37:54;;;;;;;27.50;20.10;;;;;;;0.84;78.43;99665.69;103386;1307;22503;-76
2022/12/09 04:40:20;;;;;;;28.90;21.80;;;;;;;0.88;78.71;99660.91;103416;1306;25936;-78
2022/12/09 04:42:51;;;;;;;29.40;21.60;;;;;;;0.96;78.53;99665.39;104190;1304;22523;-80
2022/12/09 04:45:17;;;;;;;27.60;20.50;;;;;;;0.94;78.30;99659.98;103755;1303;22478;-77
2022/12/09 04:47:44;;;;;;;29.30;21.90;;;;;;;1.00;78.42;99665.98;103783;1303;22467;-79
2022/12/09 04:50:10;;;;;;;29.20;20.70;;;;;;;1.04;78.34;99659.45;103790;1301;22463;-82
2022/12/09 04:52:38;;;;;;;30.40;22.20;;;;;;;1.08;78.29;99657.61;103655;1303;22474;-82
2022/12/09 04:55:04;;;;;;;27.70;21.70;;;;;;;1.08;78.10;99655.02;103636;1288;24286;-78
2022/12/09 04:57:30;;;;;;;27.90;20.40;;;;;;;1.13;78.28;99658.23;103693;1303;24225;-77
2022/12/09 04:59:57;;;;;;;28.40;20.70;;;;;;;1.18;78.01;99651.73;103686;1288;22471;-79
2022/12/09 05:02:24;;;;;;;30.90;21.50;;;;;;;1.18;77.62;99655.89;103955;1289;24237;-75
2022/12/09 05:04:51;;;;;;;29.10;22.00;;;;;;;1.09;77.42;99656.42;105725;1295;25639;-78
2022/12/09 05:07:18;;;;;;;26.80;21.20;;;;;;;1.09;77.76;99661.98;104395;1301;22671;-80
2022/12/09 05:09:46;;;;;;;31.30;20.80;;;;;;;1.13;77.98;99660.14;104168;1286;22481;-75
2022/12/09 05:12:12;;;;;;;30.90;21.50;;;;;;;1.16;77.75;99662.61;103950;1303;22450;-80
2022/12/09 05:14:39;;;;;;;28.40;21.60;;;;;;;1.08;77.24;99657.97;103686;1303;22928;-76
2022/12/09 05:17:06;;;;;;;28.40;21.60;;;;;;;0.97;77.33;99658.80;103757;1297;22541;-76
2022/12/09 05:19:32;;;;;;;31.80;22.60;;;;;;;0.95;77.74;99665.38;103670;1303;22449;-79
2022/12/09 05:22:00;;;;;;;29.60;21.30;;;;;;;1.00;77.77;99663.02;103655;1303;23902;-84
2022/12/09 05:24:27;;;;;;;27.40;20.50;;;;;;;1.03;77.99;99662.55;103911;1303;22892;-77
2022/12/09 05:26:53;;;;;;;33.70;22.40;;;;;;;1.10;77.95;99660.95;103694;1303;24219;-79
2022/12/09 05:29:20;;;;;;;29.80;22.30;;;;;;;1.08;77.58;99656.59;103545;1288;22486;-78
2022/12/09 05:31:50;;;;;;;33.20;24.60;;;;;;;1.04;77.22;99655.30;103601;1298;25292;-78
2022/12/09 05:34:17;;;;;;;31.10;21.30;;;;;;;0.91;77.23;99657.34;103854;1303;22462;-77
2022/12/09 05:36:43;;;;;;;29.70;21.60;;;;;;;0.88;77.58;99659.00;103536;1292;22551;-79
2022/12/09 05:39:10;;;;;;;29.90;21.20;;;;;;;0.88;77.51;99659.70;103599;1303;23443;-79
2022/12/09 05:41:37;;;;;;;27.10;20.90;;;;;;;0.85;77.66;99666.05;103512;1303;25221;-79
2022/12/09 05:44:04;;;;;;;31.70;20.90;;;;;;;0.85;77.66;99665.53;103595;1303;25447;-80
2022/12/09 05:46:30;;;;;;;34.70;23.80;;;;;;;0.86;77.83;99664.16;103557;1289;22468;-82
2022/12/09 05:48:57;;;;;;;27.90;20.90;;;;;;;0.92;77.93;99660.64;103647;1303;23784;-88
2022/12/09 05:51:26;;;;;;;29.70;22.60;;;;;;;0.91;77.62;99668.44;104399;1303;22498;-81
2022/12/09 05:53:55;;;;;;;32.30;22.70;;;;;;;0.91;77.63;99665.47;104842;1303;22530;-79
2022/12/09 05:56:23;;;;;;;30.40;21.30;;;;;;;0.95;77.92;99670.23;105382;1291;22479;-91
2022/12/09 05:58:50;;;;;;;32.90;22.00;;;;;;;0.98;77.51;99668.20;104256;1303;22504;-82
2022/12/09 06:01:18;;;;;;;32.30;23.00;;;;;;;0.94;77.27;99670.38;104042;1303;23227;-82
2022/12/09 06:03:46;;;;;;;29.60;21.90;;;;;;;0.91;77.21;99674.31;103988;1303;22467;-82
2022/12/09 06:06:16;;;;;;;25.70;19.00;;;;;;;0.88;77.50;99675.48;104109;1304;22535;-82
2022/12/09 06:08:44;;;;;;;29.50;22.50;;;;;;;0.86;77.28;99675.60;104622;1309;24524;-82
2022/12/09 06:11:18;;;;;;;30.80;22.60;;;;;;;0.81;77.59;99675.34;103924;1309;24469;-84
2022/12/09 06:13:47;;;;;;;34.80;22.60;;;;;;;0.85;77.60;99682.36;105161;1309;25245;-87
2022/12/09 06:16:17;;;;;;;28.80;21.20;;;;;;;0.84;77.42;99679.55;104340;1309;22302;-80
2022/12/09 06:18:45;;;;;;;31.00;23.00;;;;;;;0.84;77.31;99678.71;105216;1300;22491;-81
2022/12/09 06:21:14;;;;;;;29.50;21.90;;;;;;;0.82;77.07;99682.45;103488;1304;22481;-79
2022/12/09 06:23:41;;;;;;;31.00;22.60;;;;;;;0.81;77.25;99680.17;103327;1309;22467;-81
2022/12/09 06:26:16;;;;;;;31.10;22.80;;;;;;;0.81;77.40;99680.71;103636;1303;24245;-81
2022/12/09 06:28:42;;;;;;;32.50;23.30;;;;;;;0.85;77.58;99683.90;103525;1304;22461;-80
2022/12/09 06:31:09;;;;;;;31.40;22.90;;;;;;;0.89;77.40;99683.12;103365;1303;25691;-80
2022/12/09 06:33:36;;;;;;;27.50;21.20;;;;;;;0.85;77.35;99680.45;103582;1303;22477;-79
2022/12/09 06:36:22;;;;;;;31.10;22.00;;;;;;;0.78;77.03;99682.58;103876;1311;22519;-81
2022/12/09 06:38:48;;;;;;;29.70;22.60;;;;;;;0.72;77.24;99681.94;102967;1313;22491;-82
2022/12/09 06:41:14;;;;;;;25.40;19.60;;;;;;;0.75;77.30;99682.67;102884;1312;22477;-81
2022/12/09 06:43:41;;;;;;;33.70;23.20;;;;;;;0.78;77.38;99682.22;102635;1315;22592;-79
2022/12/09 06:46:15;;;;;;;32.70;21.70;;;;;;;0.77;77.21;99685.15;103210;1314;22477;-79
2022/12/09 06:48:43;;;;;;;30.60;21.30;;;;;;;0.74;77.14;99685.08;103420;1316;25390;-80
2022/12/09 06:51:10;;;;;;;32.70;23.90;;;;;;;0.64;77.09;99685.93;103017;1316;22473;-83
2022/12/09 06:53:37;;;;;;;36.60;23.00;;;;;;;0.58;77.45;99684.95;102844;1315;22495;-80
2022/12/09 06:56:06;;;;;;;30.90;23.30;;;;;;;0.60;77.62;99680.66;103339;1309;24910;-79
2022/12/09 06:58:42;;;;;;;31.90;23.60;;;;;;;0.65;77.71;99681.27;103593;1312;23261;-80
2022/12/09 07:01:35;;;;;;;39.20;25.60;;;;;;;0.74;78.04;99682.31;102942;1315;25269;-79
2022/12/09 07:04:04;;;;;;;33.20;24.00;;;;;;;0.91;78.17;99685.23;103317;1309;24320;-80
2022/12/09 07:06:39;;;;;;;33.10;23.70;;;;;;;1.05;78.11;99687.39;103401;1310;24916;-78
2022/12/09 07:09:10;;;;;;;31.20;23.40;;;;;;;1.18;77.99;99679.13;103320;1310;22600;-80
2022/12/09 07:11:41;;;;;;;31.30;22.60;;;;;;;1.27;77.47;99680.67;103450;1309;22468;-81
2022/12/09 07:14:08;;;;;;;32.50;23.90;;;;;;;1.26;77.18;99679.42;103687;1312;24428;-80
2022/12/09 07:16:35;;;;;;;29.20;22.90;;;;;;;1.24;76.81;99680.27;106012;1304;22474;-81
2022/12/09 07:19:07;;;;;;;34.10;23.90;;;;;;;1.22;76.96;99678.52;105364;1303;25508;-81
2022/12/09 07:21:33;;;;;;;32.30;23.00;;;;;;;1.26;77.10;99678.06;104816;1309;22557;-80
2022/12/09 07:24:02;;;;;;;34.80;24.40;;;;;;;1.37;77.05;99672.34;106395;1313;22984;-81
2022/12/09 07:26:32;;;;;;;31.70;24.30;;;;;;;1.45;76.94;99666.75;105824;1310;25218;-80
2022/12/09 07:29:04;;;;;;;32.20;24.20;;;;;;;1.55;77.02;99662.57;103776;1307;22473;-81
2022/12/09 07:31:31;;;;;;;33.50;24.30;;;;;;;1.66;76.83;99664.13;103030;1315;22476;-79
2022/12/09 07:33:59;;;;;;;40.20;25.30;;;;;;;1.74;76.66;99659.04;102821;1315;22493;-79
2022/12/09 07:36:27;;;;;;;36.00;24.60;;;;;;;1.78;76.24;99655.11;105395;1314;22508;-80
2022/12/09 07:39:10;;;;;;;29.20;23.50;;;;;;;1.82;76.14;99657.25;103278;1301;25514;-80
2022/12/09 07:41:36;;;;;;;30.90;24.50;;;;;;;1.77;75.75;99657.19;103176;1309;22507;-79
2022/12/09 07:44:03;;;;;;;32.90;25.20;;;;;;;1.79;75.93;99657.72;103086;1312;22479;-80
2022/12/09 07:46:30;;;;;;;35.40;25.90;;;;;;;1.84;75.97;99660.05;102726;1317;22685;-81
2022/12/09 07:48:57;;;;;;;32.90;24.70;;;;;;;1.90;75.80;99666.20;102157;1317;22922;-81
2022/12/09 07:51:25;;;;;;;32.60;24.40;;;;;;;1.92;75.58;99667.98;102112;1317;22614;-81
2022/12/09 07:53:52;;;;;;;33.40;24.90;;;;;;;1.99;75.67;99667.90;102478;1317;22501;-80
2022/12/09 07:56:19;;;;;;;33.30;25.50;;;;;;;2.04;75.10;99666.06;102584;1317;22494;-79
2022/12/09 07:58:47;;;;;;;33.40;24.10;;;;;;;1.92;74.56;99664.85;102681;1317;22483;-80
2022/12/09 08:01:16;;;;;;;34.60;24.80;;;;;;;1.83;74.84;99661.77;102612;1317;22477;-81
2022/12/09 08:03:44;;;;;;;33.50;24.70;;;;;;;1.75;74.80;99666.52;102764;1317;22572;-80
2022/12/09 08:06:15;;;;;;;37.70;28.30;;;;;;;1.67;74.91;99668.66;103215;1309;22522;-82
2022/12/09 08:08:42;;;;;;;31.60;23.60;;;;;;;1.61;75.30;99669.41;103628;1306;22467;-79
2022/12/09 08:11:15;;;;;;;36.60;26.20;;;;;;;1.62;75.45;99669.78;103889;1303;22438;-81
2022/12/09 08:13:44;;;;;;;36.30;26.80;;;;;;;1.71;75.95;99670.28;103747;1306;22564;-82
2022/12/09 08:16:12;;;;;;;35.50;26.80;;;;;;;1.81;75.72;99672.50;103626;1303;22469;-82
2022/12/09 08:18:40;;;;;;;37.80;27.90;;;;;;;1.88;75.83;99667.92;103347;1304;24027;-83
2022/12/09 08:21:12;;;;;;;38.50;27.60;;;;;;;1.95;75.58;99672.38;103607;1303;25502;-81
2022/12/09 08:23:39;;;;;;;36.60;27.10;;;;;;;1.96;75.30;99677.94;103758;1303;22471;-82
2022/12/09 08:26:08;;;;;;;38.40;27.60;;;;;;;1.92;74.90;99675.61;103689;1303;23862;-79
2022/12/09 08:28:35;;;;;;;39.40;27.30;;;;;;;1.84;74.89;99682.78;103569;1306;22472;-81
2022/12/09 08:31:11;;;;;;;34.10;25.50;;;;;;;1.85;75.40;99682.80;103699;1303;22584;-82
2022/12/09 08:33:38;;;;;;;;;;;;;;;1.90;75.13;99685.32;103711;1303;22534;-80
2022/12/09 08:36:12;;;;;;;36.20;27.40;;;;;;;1.87;75.08;99683.02;103574;1302;22494;-80
2022/12/09 08:38:42;;;;;;;35.70;26.50;;;;;;;1.95;75.33;99683.83;103544;1304;22516;-81
2022/12/09 08:41:15;;;;;;;40.20;29.30;;;;;;;1.94;75.01;99684.00;103603;1304;23150;-79
2022/12/09 08:43:44;;;;;;;40.30;27.80;;;;;;;2.00;75.33;99685.29;103525;1306;25300;-79
2022/12/09 08:46:11;;;;;;;37.70;28.70;;;;;;;2.05;75.22;99685.88;103335;1307;24266;-80
2022/12/09 08:48:41;;;;;;;36.10;28.30;;;;;;;2.05;75.09;99682.91;103814;1303;25268;-81
2022/12/09 08:51:11;;;;;;;36.70;28.00;;;;;;;2.05;74.75;99686.92;103723;1306;22469;-81
2022/12/09 08:53:38;;;;;;;40.50;26.80;;;;;;;2.08;75.01;99689.39;103746;1303;24256;-81
2022/12/09 08:56:14;;;;;;;31.60;25.10;;;;;;;2.20;75.24;99692.16;103501;1306;22480;-81
2022/12/09 08:58:42;;;;;;;35.00;26.20;;;;;;;2.34;75.20;99694.24;103943;1304;22469;-81
2022/12/09 09:01:21;;;;;;;35.30;27.20;;;;;;;2.44;75.02;99690.23;103766;1303;22610;-81
2022/12/09 09:03:48;;;;;;;39.50;28.10;;;;;;;2.57;74.89;99686.22;103883;1303;24320;-81
2022/12/09 09:06:17;;;;;;;35.70;26.40;;;;;;;2.67;74.63;99687.19;103249;1312;24046;-82
2022/12/09 09:08:44;;;;;;;33.40;26.40;;;;;;;2.68;74.14;99686.17;103361;1300;24259;-81
2022/12/09 09:11:17;;;;;;;36.00;28.20;;;;;;;2.59;73.60;99680.14;103200;1312;22471;-81
2022/12/09 09:13:52;;;;;;;32.60;26.90;;;;;;;2.58;73.72;99681.34;103307;1312;22473;-82
2022/12/09 09:16:24;;;;;;;37.10;27.50;;;;;;;2.52;73.55;99681.10;103152;1311;24383;-81
2022/12/09 09:18:51;;;;;;;35.00;26.90;;;;;;;2.44;73.58;99676.84;103359;1312;22478;-82
2022/12/09 09:21:22;;;;;;;36.50;27.20;;;;;;;2.46;73.98;99679.64;102850;1314;24297;-81
2022/12/09 09:23:49;;;;;;;37.50;25.70;;;;;;;2.57;74.13;99678.20;102835;1315;25310;-82
2022/12/09 09:26:19;;;;;;;34.70;28.00;;;;;;;2.71;74.18;99677.49;103392;1312;22481;-81
2022/12/09 09:28:47;;;;;;;32.60;25.40;;;;;;;2.81;74.09;99675.01;103671;1311;22723;-82
2022/12/09 09:31:18;;;;;;;42.40;27.80;;;;;;;2.88;73.88;99678.56;103514;1313;25579;-81
2022/12/09 09:33:46;;;;;;;40.50;27.50;;;;;;;2.98;73.76;99674.66;103518;1310;22418;-81
2022/12/09 09:36:19;;;;;;;37.10;27.50;;;;;;;3.07;73.60;99671.80;103460;1310;22548;-81
2022/12/09 09:38:48;;;;;;;37.80;29.50;;;;;;;3.12;73.33;99670.80;103356;1312;24218;-81
2022/12/09 09:41:27;;;;;;;37.30;28.80;;;;;;;3.10;72.85;99672.00;103298;1299;22508;-82
2022/12/09 09:43:55;;;;;;;39.60;28.50;;;;;;;3.04;72.95;99675.94;103431;1315;22473;-81
2022/12/09 09:46:37;;;;;;;37.40;29.30;;;;;;;3.06;73.24;99673.36;104631;1312;22493;-82
2022/12/09 09:49:10;;;;;;;39.40;29.10;;;;;;;3.10;73.02;99672.17;103257;1309;24375;-83
2022/12/09 09:51:38;;;;;;;40.50;28.10;;;;;;;3.09;72.70;99674.25;103150;1309;22484;-81
2022/12/09 09:54:12;;;;;;;35.80;28.20;;;;;;;3.08;72.64;99672.50;103225;1311;22449;-82
2022/12/09 09:56:59;;;;;;;36.50;28.40;;;;;;;3.10;72.62;99670.77;103526;1306;25260;-83
2022/12/09 09:59:32;;;;;;;37.60;28.60;;;;;;;3.11;72.46;99671.14;103459;1306;22468;-84
2022/12/09 10:02:11;;;;;;;38.50;30.50;;;;;;;3.10;72.38;99667.30;103540;1306;24362;-81
2022/12/09 10:05:22;;;;;;;42.70;31.30;;;;;;;3.03;72.28;99667.94;103583;1306;24073;-80
2022/12/09 10:07:55;;;;;;;46.20;31.50;;;;;;;2.95;72.34;99666.27;103783;1305;22483;-81
2022/12/09 10:10:33;;;;;;;42.80;32.50;;;;;;;2.93;72.48;99665.73;103764;1303;25348;-82
2022/12/09 10:13:09;;;;;;;48.70;32.30;;;;;;;2.90;72.45;99666.58;103661;1307;22473;-82
2022/12/09 10:16:22;;;;;;;43.90;30.90;;;;;;;2.84;72.77;99672.60;103725;1303;25423;-83
2022/12/09 10:19:30;;;;;;;45.00;31.00;;;;;;;2.84;72.73;99671.73;103817;1303;22487;-83
2022/12/09 10:22:01;;;;;;;42.30;28.60;;;;;;;2.85;72.58;99670.70;103626;1304;22697;-83
2022/12/09 10:24:33;;;;;;;44.70;28.10;;;;;;;2.91;72.99;99672.68;103988;1309;22467;-81
2022/12/09 10:27:25;;;;;;;40.70;31.80;;;;;;;3.03;72.97;99670.19;105683;1303;22760;-82
2022/12/09 10:30:03;;;;;;;48.00;32.30;;;;;;;3.07;72.45;99668.83;106348;1301;22505;-80
2022/12/09 10:32:35;;;;;;;50.60;33.20;;;;;;;3.10;72.48;99670.09;104878;1307;23181;-84
2022/12/09 10:35:12;;;;;;;45.20;33.10;;;;;;;3.06;72.06;99672.66;106488;1303;22536;-81
2022/12/09 10:37:40;;;;;;;43.00;31.50;;;;;;;3.07;72.29;99675.27;106427;1308;22497;-81
2022/12/09 10:40:06;;;;;;;38.70;30.80;;;;;;;3.08;72.16;99674.42;104863;1304;22524;-81
2022/12/09 10:45:30;;;;;;;41.40;31.90;;;;;;;3.03;72.05;99673.15;103980;1307;22477;-82
2022/12/09 10:48:46;;;;;;;42.20;31.80;;;;;;;3.07;72.10;99670.40;103789;1305;22534;-80
2022/12/09 10:51:20;;;;;;;44.00;32.10;;;;;;;3.03;72.07;99668.98;103791;1305;22470;-81
2022/12/09 10:53:55;;;;;;;42.00;30.40;;;;;;;3.07;72.21;99670.41;103813;1304;22468;-81
2022/12/09 10:56:28;;;;;;;49.60;30.60;;;;;;;3.08;72.14;99671.46;103654;1306;24415;-83
2022/12/09 10:59:16;;;;;;;41.40;31.70;;;;;;;3.11;72.14;99668.87;103728;1309;25978;-82
2022/12/09 11:01:50;;;;;;;37.70;29.80;;;;;;;3.16;72.35;99661.09;103699;1304;25250;-84
2022/12/09 11:04:26;;;;;;;38.60;31.20;;;;;;;3.21;72.01;99662.37;103481;1309;22480;-85
2022/12/09 11:06:57;;;;;;;38.20;28.50;;;;;;;3.30;72.00;99664.17;103850;1304;22448;-82
2022/12/09 11:09:37;;;;;;;39.70;29.40;;;;;;;3.46;71.89;99660.14;103697;1304;22703;-82
2022/12/09 11:12:06;;;;;;;37.00;29.50;;;;;;;3.54;71.60;99658.64;103616;1306;23896;-85
2022/12/09 11:14:38;;;;;;;34.60;28.10;;;;;;;3.65;71.77;99663.60;103629;1306;22585;-84
2022/12/09 11:17:13;;;;;;;34.70;28.40;;;;;;;3.67;70.85;99659.08;103612;1304;26565;-83
2022/12/09 11:19:43;;;;;;;35.60;28.10;;;;;;;3.64;71.13;99661.31;103682;1303;22505;-82
2022/12/09 11:22:12;;;;;;;31.30;26.50;;;;;;;3.70;70.83;99661.19;103801;1308;23902;-82
2022/12/09 11:24:39;;;;;;;34.00;27.30;;;;;;;3.87;71.47;99658.88;103480;1306;22584;-81
2022/12/09 11:27:31;;;;;;;34.40;26.30;;;;;;;4.19;71.10;99656.59;104151;1307;22633;-80
2022/12/09 11:30:18;;;;;;;35.40;26.90;;;;;;;4.57;70.62;99650.49;103696;1298;22629;-82
2022/12/09 11:33:04;;;;;;;34.70;29.20;;;;;;;4.76;69.98;99649.00;103771;1303;23102;-82
2022/12/09 11:35:43;;;;;;;34.90;27.60;;;;;;;4.88;69.80;99650.41;103654;1303;22524;-84
2022/12/09 11:38:35;;;;;;;35.50;28.10;;;;;;;4.99;69.53;99648.70;103627;1301;23855;-84
2022/12/09 11:41:01;;;;;;;33.10;27.40;;;;;;;5.10;68.82;99649.23;103874;1304;22491;-84